Terminal Aerodrome Forecast
Issued by NWS Albany, NY

Home | Current Version | Previous Version | Text Only | Print | Product List | Glossary On
Versions: 1 2 3 4 5 6 7 8 9 10 11 12 13 14 15 16 17 18 19 20 21
000
FTUS41 KALY 220541
TAFALB
TAF
KALB 220541Z 2206/2306 27004KT P6SM VCSH OVC090
     FM221200 23008KT P6SM SCT100
     FM221500 29012G20KT P6SM SCT060
     FM221700 29015G26KT P6SM BKN060
     FM230200 30012KT P6SM SKC=

USA.gov is the U.S. government's official web portal to all federal, state and local government web resources and services.